Time;durP1;ratioP1;P1;durP2;ratioP2;P2;SDS_P1;SDS_P2;PMS_P1;PMS_P2;Temp;Humidity;BMP_temperature;BMP_pressure;BME280_temperature;BME280_humidity;BME280_pressure;Samples;Min_cycle;Max_cycle;Signal;HPM_P1;HPM_P2
2022/12/30 00:03:05;;;;;;;8.17;1.60;;;;;;;5.41;58.04;99972.72;10479462;28;20206;-82
2022/12/30 00:08:45;;;;;;;7.83;1.13;;;;;;;4.86;59.73;99982.94;10494920;28;20250;-82
2022/12/30 00:37:18;;;;;;;11.27;1.57;;;;;;;5.08;59.65;99991.50;10490004;28;20562;-89
2022/12/30 00:59:44;;;;;;;10.00;1.67;;;;;;;5.52;57.43;100015.28;10505917;28;20203;-85
2022/12/30 01:05:06;;;;;;;11.53;1.50;;;;;;;4.88;58.16;100019.78;10509534;28;20194;-82
2022/12/30 01:10:29;;;;;;;12.67;1.40;;;;;;;5.30;57.95;100021.56;10487016;28;20316;-82
2022/12/30 01:15:52;;;;;;;8.87;1.40;;;;;;;5.02;58.90;100025.41;10496270;28;20256;-91
2022/12/30 01:21:16;;;;;;;9.20;1.53;;;;;;;4.75;59.71;100031.72;10504371;28;20206;-90
2022/12/30 01:26:39;;;;;;;7.07;1.60;;;;;;;4.81;58.45;100031.34;10493478;28;20254;-89
2022/12/30 01:32:01;;;;;;;7.67;1.57;;;;;;;5.47;57.11;100030.19;10537574;28;20199;-87
2022/12/30 01:37:24;;;;;;;7.17;2.10;;;;;;;5.43;57.64;100036.72;10500704;28;20219;-84
2022/12/30 01:42:46;;;;;;;10.03;1.77;;;;;;;5.09;58.10;100037.03;10498210;28;20251;-85
2022/12/30 01:48:23;;;;;;;9.43;1.47;;;;;;;5.03;58.37;100055.00;10528013;28;20678;-91
2022/12/30 01:53:48;;;;;;;8.40;1.20;;;;;;;5.27;58.24;100050.13;10523751;28;20251;-83
2022/12/30 01:59:15;;;;;;;12.67;1.63;;;;;;;5.58;56.62;100050.41;10508627;28;20210;-90
2022/12/30 02:04:38;;;;;;;12.10;1.97;;;;;;;5.65;56.14;100062.00;10531206;28;20259;-84
2022/12/30 02:10:00;;;;;;;9.33;1.70;;;;;;;5.00;58.40;100061.19;10566792;28;20214;-85
2022/12/30 02:15:25;;;;;;;7.93;1.27;;;;;;;5.27;57.35;100061.31;10531766;28;20202;-86
2022/12/30 02:21:02;;;;;;;5.73;1.23;;;;;;;5.40;56.77;100048.50;10537921;28;20259;-87
2022/12/30 02:26:38;;;;;;;9.27;1.33;;;;;;;5.11;58.29;100057.13;10543381;28;20246;-89
2022/12/30 02:32:21;;;;;;;10.97;1.80;;;;;;;5.18;57.40;100058.41;10514577;28;20263;-91
2022/12/30 02:38:08;;;;;;;7.07;1.50;;;;;;;5.04;58.26;100059.44;10524217;28;20220;-84
2022/12/30 02:49:15;;;;;;;10.03;1.60;;;;;;;5.59;56.26;100043.66;10550803;28;20283;-84
2022/12/30 02:54:38;;;;;;;8.77;1.80;;;;;;;4.44;59.32;100062.09;10543199;28;20243;-87
2022/12/30 03:06:15;;;;;;;9.03;1.50;;;;;;;5.02;58.48;100064.50;10545939;28;20243;-84
2022/12/30 03:12:14;;;;;;;6.37;1.40;;;;;;;4.98;58.51;100052.31;10566330;28;20198;-86
2022/12/30 03:17:38;;;;;;;12.20;2.33;;;;;;;5.31;56.90;100056.78;10572854;28;20244;-86
2022/12/30 03:28:43;;;;;;;8.90;1.30;;;;;;;5.47;57.10;100040.56;10551878;28;20279;-85
2022/12/30 03:34:06;;;;;;;10.03;1.27;;;;;;;4.73;58.69;100045.16;10527195;28;20210;-90
2022/12/30 03:39:35;;;;;;;11.30;1.80;;;;;;;4.79;58.46;100039.19;10552484;28;20295;-90
2022/12/30 03:44:58;;;;;;;8.73;2.10;;;;;;;4.73;58.78;100042.34;10539715;28;20186;-88
2022/12/30 03:50:20;;;;;;;7.50;1.33;;;;;;;4.70;59.48;100046.63;10534242;28;20217;-90
2022/12/30 03:55:42;;;;;;;5.93;1.20;;;;;;;4.71;58.87;100047.44;10550283;28;20266;-86
2022/12/30 04:01:04;;;;;;;8.07;1.97;;;;;;;4.70;59.16;100037.41;10529607;28;20190;-88
2022/12/30 04:06:26;;;;;;;9.07;1.40;;;;;;;4.27;60.32;100036.66;10504502;28;20283;-90
2022/12/30 04:11:48;;;;;;;9.27;2.00;;;;;;;4.57;59.60;100052.97;10505560;28;20233;-90
2022/12/30 04:17:11;;;;;;;10.33;1.13;;;;;;;4.42;60.34;100047.59;10537990;28;20207;-86
2022/12/30 04:22:33;;;;;;;9.87;1.63;;;;;;;4.55;59.37;100043.22;10515997;28;20233;-85
2022/12/30 04:27:55;;;;;;;6.30;1.77;;;;;;;4.20;61.01;100047.38;10519500;28;20252;-84
2022/12/30 04:33:18;;;;;;;7.13;1.27;;;;;;;3.98;62.01;100056.28;10542113;28;20185;-85
2022/12/30 04:38:40;;;;;;;6.43;1.27;;;;;;;4.30;60.60;100047.22;10513401;28;20249;-86
2022/12/30 04:44:04;;;;;;;6.10;1.30;;;;;;;4.19;60.82;100042.91;10550936;28;20198;-89
2022/12/30 04:49:26;;;;;;;8.87;1.30;;;;;;;4.05;61.12;100038.06;10528745;28;20210;-88
2022/12/30 04:54:48;;;;;;;7.67;1.90;;;;;;;3.81;61.75;100051.22;10498195;28;20218;-89
2022/12/30 05:00:11;;;;;;;10.20;1.70;;;;;;;3.89;61.49;100052.50;10503225;28;20255;-86
2022/12/30 05:05:33;;;;;;;8.27;1.50;;;;;;;3.92;61.54;100055.53;10507140;28;20592;-86
2022/12/30 05:10:56;;;;;;;9.30;1.23;;;;;;;3.91;61.56;100056.66;10507828;28;20717;-90
2022/12/30 05:16:18;;;;;;;10.67;1.47;;;;;;;3.53;63.02;100057.66;10479444;28;20210;-87
2022/12/30 05:21:40;;;;;;;7.03;1.37;;;;;;;3.80;62.01;100055.13;10499078;28;20676;-88
2022/12/30 05:27:02;;;;;;;7.27;1.40;;;;;;;3.62;63.17;100064.22;10519544;28;20557;-86
2022/12/30 05:32:24;;;;;;;9.90;1.60;;;;;;;3.90;62.90;100068.09;10527720;28;20190;-84
2022/12/30 05:37:47;;;;;;;5.27;1.30;;;;;;;4.03;62.01;100064.59;10483220;28;20244;-83
2022/12/30 05:43:09;;;;;;;9.70;1.47;;;;;;;3.62;63.48;100067.84;10524817;28;20249;-88
2022/12/30 05:48:31;;;;;;;8.40;1.20;;;;;;;3.64;63.45;100079.53;10471125;28;20264;-86
2022/12/30 05:53:53;;;;;;;9.27;1.77;;;;;;;3.87;62.75;100061.16;10496774;28;20202;-86
2022/12/30 05:59:15;;;;;;;7.63;1.50;;;;;;;3.89;61.83;100069.22;10500168;28;20198;-86
2022/12/30 06:04:37;;;;;;;5.67;1.97;;;;;;;3.91;61.82;100067.81;10483811;28;20207;-89
2022/12/30 06:10:00;;;;;;;7.77;1.50;;;;;;;4.13;61.78;100062.50;10507367;28;20214;-89
2022/12/30 06:15:22;;;;;;;8.73;1.20;;;;;;;4.21;60.24;100057.38;10507259;28;20202;-87
2022/12/30 06:20:45;;;;;;;9.07;1.73;;;;;;;4.25;61.05;100038.91;10517291;28;20205;-84
2022/12/30 06:26:08;;;;;;;7.30;1.17;;;;;;;3.68;62.43;100040.75;10498988;28;20259;-85
2022/12/30 06:31:30;;;;;;;5.50;0.93;;;;;;;4.07;61.26;100037.78;10476383;28;20222;-85
2022/12/30 06:36:52;;;;;;;5.40;1.73;;;;;;;3.97;61.72;100033.16;10511174;28;20241;-84
2022/12/30 06:42:14;;;;;;;7.33;1.20;;;;;;;4.22;60.21;100028.34;10502232;28;20594;-87
2022/12/30 06:47:36;;;;;;;3.83;1.50;;;;;;;4.36;60.15;100029.25;10499099;28;20234;-86
2022/12/30 06:53:00;;;;;;;8.00;1.17;;;;;;;4.02;61.10;100027.50;10505835;28;20716;-86
2022/12/30 06:58:22;;;;;;;5.43;0.80;;;;;;;3.49;62.78;100028.69;10485941;28;20217;-85
2022/12/30 07:03:44;;;;;;;6.50;1.20;;;;;;;3.98;61.49;100023.66;10491073;28;20230;-85
2022/12/30 07:09:06;;;;;;;5.80;1.00;;;;;;;4.10;61.28;100020.44;10494040;28;20276;-88
2022/12/30 07:14:28;;;;;;;5.67;0.97;;;;;;;3.89;61.54;100003.16;10489790;28;20206;-84
2022/12/30 07:19:51;;;;;;;4.77;1.30;;;;;;;4.08;60.42;99995.63;10521871;28;20194;-87
2022/12/30 07:25:13;;;;;;;4.33;1.00;;;;;;;3.91;60.99;100002.84;10484513;28;20207;-85
2022/12/30 07:30:35;;;;;;;3.73;0.90;;;;;;;3.91;61.23;99995.31;10518525;28;20214;-84
2022/12/30 07:35:57;;;;;;;4.97;0.83;;;;;;;4.00;61.08;99996.31;10507287;28;20276;-84
2022/12/30 07:41:19;;;;;;;5.30;0.80;;;;;;;3.64;61.77;99976.41;10522272;28;20553;-85
2022/12/30 07:46:44;;;;;;;4.40;0.73;;;;;;;4.16;60.19;99983.81;10536749;28;20190;-84
2022/12/30 07:52:07;;;;;;;4.10;0.70;;;;;;;3.91;61.47;99986.13;10518655;28;20211;-85
2022/12/30 07:57:29;;;;;;;3.70;0.67;;;;;;;4.14;60.78;99988.84;10470622;28;20223;-85
2022/12/30 08:02:51;;;;;;;6.17;0.70;;;;;;;4.13;61.08;99969.63;10504566;28;20221;-86
2022/12/30 08:08:13;;;;;;;2.70;0.67;;;;;;;4.03;62.08;99970.63;10502053;28;20746;-84
2022/12/30 08:13:38;;;;;;;5.17;1.37;;;;;;;4.37;60.40;99961.16;10487158;28;20219;-81
2022/12/30 08:19:00;;;;;;;3.67;0.67;;;;;;;4.64;59.86;99955.69;10476939;28;20644;-87
2022/12/30 08:24:22;;;;;;;2.53;0.63;;;;;;;4.30;60.70;99953.19;10489075;28;20296;-83
2022/12/30 08:29:44;;;;;;;5.90;0.83;;;;;;;4.51;60.10;99953.69;10519473;28;20238;-84
2022/12/30 08:35:07;;;;;;;3.10;0.40;;;;;;;4.45;60.22;99929.81;10483382;28;20231;-84
2022/12/30 08:40:31;;;;;;;3.90;0.73;;;;;;;4.50;60.37;99907.38;10492698;28;20598;-83
2022/12/30 08:45:58;;;;;;;2.30;0.57;;;;;;;4.51;60.51;99906.25;10494025;28;20211;-87
2022/12/30 08:51:20;;;;;;;3.20;0.53;;;;;;;4.79;59.10;99894.00;10502598;28;20245;-84
2022/12/30 08:56:45;;;;;;;3.27;0.67;;;;;;;4.89;58.55;99891.03;10489373;28;20215;-84
2022/12/30 09:02:11;;;;;;;4.93;0.40;;;;;;;4.42;60.12;99888.56;10483747;28;20306;-84
2022/12/30 09:07:33;;;;;;;1.67;0.80;;;;;;;4.63;59.96;99878.69;10469147;28;20252;-86
2022/12/30 09:12:55;;;;;;;4.23;0.70;;;;;;;4.49;60.36;99878.63;10482226;28;20584;-85
2022/12/30 09:18:17;;;;;;;2.83;0.63;;;;;;;4.79;59.43;99870.84;10478621;28;20230;-84
2022/12/30 09:23:40;;;;;;;3.23;0.70;;;;;;;5.15;58.00;99868.19;10479950;28;20285;-84
2022/12/30 09:29:02;;;;;;;4.63;0.50;;;;;;;4.72;59.04;99868.44;10489822;28;20280;-84
2022/12/30 09:34:24;;;;;;;4.03;1.30;;;;;;;5.44;57.58;99865.91;10479996;28;20302;-84
2022/12/30 09:39:46;;;;;;;1.27;0.33;;;;;;;5.38;57.38;99839.19;10499468;28;20190;-85
2022/12/30 09:45:28;;;;;;;4.40;1.27;;;;;;;5.24;57.85;99846.81;10501119;28;20221;-85
2022/12/30 09:50:58;;;;;;;3.47;0.67;;;;;;;5.57;56.71;99828.72;10510024;28;20241;-85
2022/12/30 09:56:39;;;;;;;3.70;0.70;;;;;;;5.21;57.44;99819.47;10477141;28;20364;-84
2022/12/30 10:02:22;;;;;;;4.03;0.70;;;;;;;5.53;57.25;99808.13;10510970;28;20207;-85
2022/12/30 10:08:15;;;;;;;5.63;1.10;;;;;;;5.70;56.99;99779.50;10484042;28;20256;-84
2022/12/30 10:13:43;;;;;;;2.97;0.53;;;;;;;5.20;57.79;99770.31;10471580;28;20203;-85
2022/12/30 10:19:21;;;;;;;5.47;0.67;;;;;;;5.59;57.07;99753.75;10525736;28;20808;-86
2022/12/30 10:25:04;;;;;;;4.87;0.60;;;;;;;5.80;56.42;99723.31;10530920;28;20202;-85
2022/12/30 10:30:36;;;;;;;2.80;0.50;;;;;;;5.76;57.04;99710.31;10510641;28;20692;-85
2022/12/30 10:36:05;;;;;;;4.97;0.47;;;;;;;5.65;57.31;99708.88;10515158;28;20276;-85
2022/12/30 10:41:36;;;;;;;4.50;0.73;;;;;;;5.68;56.71;99709.09;10465987;28;20691;-84
2022/12/30 10:47:38;;;;;;;5.17;0.77;;;;;;;5.98;55.41;99682.31;10487685;28;20619;-83
2022/12/30 10:53:01;;;;;;;4.07;0.70;;;;;;;5.98;55.82;99676.72;10465945;28;20230;-85
2022/12/30 10:58:27;;;;;;;4.57;0.77;;;;;;;6.46;55.01;99661.97;10504351;28;20280;-85
2022/12/30 11:03:52;;;;;;;3.53;0.40;;;;;;;6.31;54.66;99655.63;10514150;28;20270;-85
2022/12/30 11:09:24;;;;;;;3.13;0.93;;;;;;;6.34;54.35;99648.56;10496659;28;20248;-88
2022/12/30 11:15:26;;;;;;;1.57;0.40;;;;;;;6.08;54.61;99628.88;10502602;28;20223;-87
2022/12/30 11:20:51;;;;;;;4.60;0.73;;;;;;;6.27;53.98;99632.25;10529296;28;20271;-85
2022/12/30 11:26:21;;;;;;;3.17;0.83;;;;;;;6.70;52.48;99627.91;10513477;28;20222;-86
2022/12/30 11:31:47;;;;;;;2.93;0.50;;;;;;;6.42;53.76;99604.97;10533783;28;20230;-83
2022/12/30 11:37:31;;;;;;;1.93;0.50;;;;;;;6.16;54.39;99608.47;10509850;28;20248;-84
2022/12/30 11:43:23;;;;;;;1.83;0.47;;;;;;;6.45;53.86;99588.34;10479963;28;20493;-86
2022/12/30 11:48:51;;;;;;;2.27;0.40;;;;;;;5.97;54.66;99587.53;10506001;28;20223;-85
2022/12/30 11:54:27;;;;;;;4.60;1.10;;;;;;;6.18;54.49;99555.81;10516095;28;20284;-87
2022/12/30 11:59:53;;;;;;;3.30;0.80;;;;;;;5.93;55.51;99546.22;10485158;28;20600;-89
2022/12/30 12:05:21;;;;;;;3.53;0.70;;;;;;;6.42;53.56;99533.00;10529322;28;20258;-87
2022/12/30 12:10:57;;;;;;;2.30;0.50;;;;;;;6.59;53.91;99510.63;10513063;28;20198;-89
2022/12/30 12:16:48;;;;;;;1.33;0.53;;;;;;;6.08;54.59;99489.00;10485328;28;20233;-84
2022/12/30 12:22:26;;;;;;;2.73;0.43;;;;;;;6.59;53.28;99448.22;10504527;28;20226;-87
2022/12/30 12:27:52;;;;;;;1.27;0.43;;;;;;;5.84;55.62;99441.06;10505945;28;20195;-85
2022/12/30 12:33:39;;;;;;;4.23;1.13;;;;;;;6.17;55.03;99407.84;10502898;28;20197;-88
2022/12/30 12:39:09;;;;;;;2.17;0.63;;;;;;;6.29;54.81;99382.84;10468349;28;20243;-87
2022/12/30 12:44:46;;;;;;;1.40;0.30;;;;;;;5.68;56.66;99367.19;10420853;28;20195;-91
2022/12/30 12:50:39;;;;;;;19.13;10.70;;;;;;;6.14;54.88;99324.59;10412469;28;20264;-88
2022/12/30 12:56:07;;;;;;;12.93;5.80;;;;;;;5.91;56.04;99304.34;10431503;28;20257;-85
2022/12/30 13:01:47;;;;;;;4.80;2.23;;;;;;;6.49;54.49;99298.22;10422142;28;20205;-89
2022/12/30 13:07:21;;;;;;;3.13;0.70;;;;;;;6.38;54.56;99294.13;10428657;28;20212;-88
2022/12/30 13:13:13;;;;;;;4.10;0.93;;;;;;;6.21;55.61;99286.56;10427981;28;20216;-90
2022/12/30 13:18:37;;;;;;;3.83;1.43;;;;;;;6.74;54.08;99264.88;10439383;28;20212;-88
2022/12/30 13:24:03;;;;;;;3.33;0.97;;;;;;;6.41;55.22;99245.09;10426334;28;20219;-87
2022/12/30 13:29:30;;;;;;;4.53;0.97;;;;;;;6.80;54.00;99213.13;10444746;28;20208;-89
2022/12/30 13:35:05;;;;;;;2.13;0.60;;;;;;;6.53;54.91;99206.00;10455073;28;20187;-86
2022/12/30 13:40:36;;;;;;;4.17;0.43;;;;;;;6.52;55.19;99215.56;10521539;28;20216;-90
2022/12/30 13:46:01;;;;;;;1.90;0.70;;;;;;;6.29;55.84;99209.34;10519546;28;20182;-91
2022/12/30 13:51:25;;;;;;;3.23;0.80;;;;;;;6.46;55.69;99200.09;10477583;28;20222;-88
2022/12/30 13:56:49;;;;;;;3.70;0.80;;;;;;;6.72;57.31;99184.00;10496436;28;20219;-86
2022/12/30 14:02:17;;;;;;;1.50;0.40;;;;;;;5.90;63.01;99179.66;10508050;28;20199;-84
2022/12/30 14:07:41;;;;;;;3.53;1.10;;;;;;;5.85;65.59;99172.28;10523339;28;20271;-91
2022/12/30 14:13:25;;;;;;;4.13;0.70;;;;;;;5.65;68.30;99160.97;10505027;28;20222;-85
2022/12/30 14:18:49;;;;;;;1.63;0.60;;;;;;;6.14;67.67;99146.38;10505680;28;20251;-84
2022/12/30 14:24:30;;;;;;;3.87;0.67;;;;;;;5.70;68.69;99122.50;10501913;28;20256;-85
2022/12/30 14:30:18;;;;;;;5.77;1.03;;;;;;;6.15;68.01;99089.25;10498791;28;20642;-87
2022/12/30 14:36:19;;;;;;;5.33;0.37;;;;;;;5.86;68.33;99056.50;10493137;28;20666;-85
2022/12/30 14:41:46;;;;;;;5.20;0.40;;;;;;;5.68;68.14;99040.94;10494282;28;20218;-86
2022/12/30 14:47:09;;;;;;;3.73;0.50;;;;;;;5.94;67.21;99046.41;10486443;28;20198;-84
2022/12/30 14:52:31;;;;;;;4.37;2.17;;;;;;;5.97;67.65;99037.38;10500861;28;20272;-87
2022/12/30 14:58:23;;;;;;;3.47;1.37;;;;;;;5.67;68.46;99024.50;10517869;28;20210;-86
2022/12/30 15:03:46;;;;;;;6.53;4.03;;;;;;;5.58;68.52;99000.19;10528758;28;20202;-88
2022/12/30 15:09:17;;;;;;;3.10;1.10;;;;;;;6.01;68.60;98965.63;10495983;28;20214;-88
2022/12/30 15:14:44;;;;;;;3.57;0.53;;;;;;;5.96;68.82;98977.00;10477588;28;20198;-88
2022/12/30 15:20:39;;;;;;;0.67;0.60;;;;;;;5.48;70.24;98972.63;10518450;28;20206;-87
2022/12/30 15:26:03;;;;;;;1.37;0.47;;;;;;;5.84;69.19;98968.50;10437127;28;20284;-88
2022/12/30 15:31:31;;;;;;;2.13;0.60;;;;;;;5.58;69.32;98982.63;10508849;28;20250;-89
2022/12/30 15:36:54;;;;;;;1.87;0.87;;;;;;;6.17;68.33;98989.03;10526305;28;20242;-87
2022/12/30 15:42:22;;;;;;;2.53;0.50;;;;;;;5.90;68.75;99006.28;10503655;28;20280;-87
2022/12/30 15:47:44;;;;;;;1.77;0.60;;;;;;;6.16;67.32;99009.75;10518244;28;20210;-88
2022/12/30 15:53:31;;;;;;;1.23;0.40;;;;;;;6.13;68.30;98996.47;10519707;28;20229;-89
2022/12/30 15:58:56;;;;;;;1.33;0.37;;;;;;;5.81;70.22;99005.53;10503234;28;20283;-91
2022/12/30 16:04:20;;;;;;;1.07;0.40;;;;;;;5.90;69.93;99014.69;10495009;28;20198;-88
2022/12/30 16:09:46;;;;;;;2.27;0.60;;;;;;;6.04;70.52;99012.47;10494130;28;20623;-92
2022/12/30 16:15:19;;;;;;;0.53;0.40;;;;;;;6.16;69.41;99022.94;10515425;28;20839;-86
2022/12/30 16:20:50;;;;;;;0.57;0.20;;;;;;;6.45;69.11;99008.13;10431429;28;95143;-88
2022/12/30 16:26:27;;;;;;;1.80;0.70;;;;;;;8.45;69.58;99022.13;10494842;28;20624;-86
2022/12/30 16:31:50;;;;;;;0.97;0.50;;;;;;;8.33;70.38;99008.84;10490334;28;20257;-91
2022/12/30 16:37:29;;;;;;;1.10;0.20;;;;;;;8.03;72.17;99015.59;10517280;28;20202;-88
2022/12/30 16:43:19;;;;;;;0.80;0.30;;;;;;;9.28;71.05;99007.06;10470670;28;21021;-88
2022/12/30 16:48:41;;;;;;;0.37;0.20;;;;;;;9.36;71.55;99018.53;10461914;28;20226;-85
2022/12/30 16:54:18;;;;;;;0.33;0.20;;;;;;;9.21;72.63;99012.38;10436464;28;20246;-86
2022/12/30 16:59:40;;;;;;;0.20;0.20;;;;;;;9.60;71.87;99052.31;10418951;28;20236;-86
2022/12/30 17:05:02;;;;;;;1.37;0.50;;;;;;;9.23;73.62;99046.44;10393559;28;20225;-85
2022/12/30 17:16:17;;;;;;;1.60;0.70;;;;;;;9.64;73.74;99039.28;10405942;28;20228;-87
2022/12/30 17:21:42;;;;;;;2.23;1.47;;;;;;;9.50;74.48;99047.94;10385857;28;20248;-87
2022/12/30 17:27:04;;;;;;;1.33;0.70;;;;;;;9.48;75.15;99044.66;10379212;28;20675;-85
2022/12/30 17:32:33;;;;;;;1.67;0.60;;;;;;;9.45;74.93;99055.72;10375216;28;20232;-84
2022/12/30 17:37:56;;;;;;;0.93;0.40;;;;;;;10.42;71.53;99056.22;10402737;28;20251;-84
2022/12/30 17:43:19;;;;;;;0.70;0.47;;;;;;;10.04;73.44;99053.63;10360934;28;20362;-86
2022/12/30 17:48:41;;;;;;;0.67;0.67;;;;;;;9.69;74.82;99038.25;10398043;28;20196;-85
2022/12/30 17:54:03;;;;;;;0.50;0.33;;;;;;;10.47;72.07;99066.38;10371343;28;20255;-85
2022/12/30 17:59:26;;;;;;;0.30;0.30;;;;;;;10.02;74.65;99062.38;10352455;28;20237;-86
2022/12/30 18:04:48;;;;;;;0.33;0.30;;;;;;;10.00;74.02;99061.88;10370006;28;20243;-84
2022/12/30 18:10:11;;;;;;;1.30;0.57;;;;;;;10.23;73.92;99067.13;10382809;28;20281;-84
2022/12/30 18:15:33;;;;;;;0.70;0.20;;;;;;;10.26;74.82;99069.22;10342968;28;20303;-85
2022/12/30 18:20:55;;;;;;;0.70;0.60;;;;;;;10.70;73.99;99067.66;10348068;28;20560;-85
2022/12/30 18:26:20;;;;;;;0.40;0.40;;;;;;;10.45;75.40;99083.53;10361819;28;20280;-86
2022/12/30 18:31:42;;;;;;;2.93;1.90;;;;;;;10.50;75.93;99097.34;10398366;28;20201;-84
2022/12/30 18:37:04;;;;;;;4.13;1.67;;;;;;;10.05;76.68;99088.88;10360045;28;20303;-87
2022/12/30 18:42:27;;;;;;;0.77;0.30;;;;;;;10.62;74.55;99108.63;10369753;28;20555;-84
2022/12/30 18:47:50;;;;;;;0.57;0.57;;;;;;;10.58;75.75;99120.91;10379367;28;20233;-88
2022/12/30 18:53:13;;;;;;;0.80;0.50;;;;;;;10.62;77.68;99119.84;10376668;28;20232;-83
2022/12/30 18:58:35;;;;;;;1.00;0.90;;;;;;;10.45;77.99;99117.19;10363562;28;20248;-86
2022/12/30 19:03:58;;;;;;;1.37;0.90;;;;;;;10.59;78.27;99125.31;10383957;28;20285;-85
2022/12/30 19:09:21;;;;;;;2.07;0.60;;;;;;;10.65;76.70;99133.19;10353840;28;20205;-86
2022/12/30 19:14:45;;;;;;;1.53;0.60;;;;;;;10.97;76.26;99155.94;10376040;28;20216;-86
2022/12/30 19:20:08;;;;;;;0.77;0.63;;;;;;;11.37;74.99;99156.13;10367812;28;20259;-85
2022/12/30 19:25:31;;;;;;;1.17;0.63;;;;;;;11.55;72.87;99167.97;10365386;28;20267;-85
2022/12/30 19:30:54;;;;;;;1.20;0.80;;;;;;;11.66;73.20;99184.03;10373362;28;20240;-86
2022/12/30 19:36:20;;;;;;;1.87;0.60;;;;;;;11.55;74.46;99170.78;10381856;28;20509;-87
2022/12/30 19:41:44;;;;;;;0.73;0.50;;;;;;;12.02;72.71;99173.94;10342883;28;20256;-85
2022/12/30 19:47:07;;;;;;;0.47;0.40;;;;;;;11.96;73.25;99178.19;10330247;28;20302;-84
2022/12/30 19:52:29;;;;;;;1.40;0.57;;;;;;;12.03;72.24;99176.41;10372056;28;20217;-85
2022/12/30 19:57:51;;;;;;;0.93;0.67;;;;;;;12.12;71.84;99174.31;10349997;28;20633;-84
2022/12/30 20:03:14;;;;;;;1.20;0.80;;;;;;;12.68;70.74;99184.81;10353571;28;20264;-85
2022/12/30 20:08:37;;;;;;;0.53;0.53;;;;;;;12.80;69.64;99179.94;10327049;28;20214;-83
2022/12/30 20:13:59;;;;;;;0.40;0.40;;;;;;;12.75;69.77;99182.22;10346347;28;20233;-85
2022/12/30 20:19:21;;;;;;;2.00;0.60;;;;;;;12.36;72.02;99189.47;10358917;28;20271;-83
2022/12/30 20:24:44;;;;;;;0.70;0.60;;;;;;;13.18;69.19;99193.47;10352770;28;20268;-84
2022/12/30 20:30:07;;;;;;;1.17;0.93;;;;;;;12.74;70.87;99203.91;10350661;28;20256;-84
2022/12/30 20:35:29;;;;;;;0.63;0.57;;;;;;;12.57;70.82;99215.41;10366434;28;20248;-84
2022/12/30 20:40:58;;;;;;;1.45;0.47;;;;;;;12.77;71.03;99227.72;10342172;28;20257;-85
2022/12/30 20:46:20;;;;;;;0.50;0.40;;;;;;;12.84;72.41;99234.34;10374253;28;20224;-83
2022/12/30 20:51:43;;;;;;;1.43;0.40;;;;;;;13.25;70.41;99243.56;10364812;28;20205;-85
2022/12/30 20:57:05;;;;;;;0.30;0.30;;;;;;;13.27;70.70;99246.84;10372557;28;20627;-84
2022/12/30 21:02:27;;;;;;;0.50;0.43;;;;;;;13.48;69.93;99252.22;10368143;28;20267;-84
2022/12/30 21:07:49;;;;;;;0.80;0.50;;;;;;;13.48;70.79;99250.22;10353775;28;20487;-85
2022/12/30 21:13:12;;;;;;;1.20;0.90;;;;;;;12.98;73.31;99255.66;10363529;28;20664;-85
2022/12/30 21:18:34;;;;;;;0.50;0.50;;;;;;;13.03;73.03;99253.41;10347167;28;20697;-85
2022/12/30 21:23:56;;;;;;;0.50;0.50;;;;;;;13.33;71.07;99255.81;10354374;28;20858;-84
2022/12/30 21:29:18;;;;;;;1.13;0.80;;;;;;;13.26;71.40;99272.53;10346193;28;20291;-86
2022/12/30 21:34:41;;;;;;;1.90;0.77;;;;;;;13.55;71.02;99278.59;10387646;28;20294;-84
2022/12/30 22:02:49;;;;;;;2.53;0.93;;;;;;;12.98;76.23;99307.13;10369893;28;20252;-84
2022/12/30 22:08:18;;;;;;;1.47;1.13;;;;;;;13.25;74.18;99328.03;10365149;28;20221;-84
2022/12/30 22:13:42;;;;;;;1.10;0.90;;;;;;;13.81;73.34;99340.13;10371492;28;20213;-84
2022/12/30 22:19:04;;;;;;;1.43;1.00;;;;;;;13.63;75.09;99360.53;10376457;28;20205;-84
2022/12/30 22:24:26;;;;;;;0.60;0.60;;;;;;;13.91;73.08;99350.03;10371535;28;20520;-84
2022/12/30 22:29:48;;;;;;;1.00;0.90;;;;;;;13.36;74.84;99345.25;10384563;28;20220;-84
2022/12/30 22:35:11;;;;;;;0.90;0.70;;;;;;;13.54;73.83;99358.69;10385817;28;20228;-84
2022/12/30 22:40:33;;;;;;;1.03;0.50;;;;;;;13.71;72.73;99362.38;10399509;28;20232;-85
2022/12/30 22:46:06;;;;;;;0.73;0.63;;;;;;;13.55;72.98;99371.59;10393500;28;20209;-84
2022/12/30 22:51:29;;;;;;;1.05;0.40;;;;;;;13.82;70.66;99369.13;10359943;28;20197;-84
2022/12/30 22:56:51;;;;;;;0.93;0.53;;;;;;;13.51;71.96;99362.22;10392256;28;20303;-85
2022/12/30 23:02:13;;;;;;;0.30;0.30;;;;;;;13.85;72.39;99362.75;10399808;28;20306;-84
2022/12/30 23:07:37;;;;;;;2.50;0.50;;;;;;;13.67;72.43;99369.91;10366022;28;20205;-84
2022/12/30 23:18:42;;;;;;;0.50;0.50;;;;;;;13.42;75.58;99372.00;10388870;28;20407;-86
2022/12/30 23:29:46;;;;;;;0.93;0.80;;;;;;;13.85;75.46;99399.41;10362630;28;20209;-84
2022/12/30 23:35:08;;;;;;;1.13;0.70;;;;;;;13.80;74.37;99377.13;10381461;28;20229;-84
2022/12/30 23:40:30;;;;;;;0.70;0.40;;;;;;;14.07;73.72;99379.09;10371470;28;20282;-85
2022/12/30 23:45:54;;;;;;;0.80;0.50;;;;;;;14.13;72.77;99377.63;10393911;28;20243;-85
2022/12/30 23:51:19;;;;;;;0.80;0.50;;;;;;;13.41;75.36;99382.44;10388417;28;20835;-86
2022/12/30 23:56:41;;;;;;;0.50;0.50;;;;;;;13.05;77.33;99380.53;10358886;28;20226;-86
